createdAt,value
2017-07-30T16:47:20.780Z,1003.27
2017-07-30T16:48:01.388Z,1003.32
2017-07-30T16:48:42.005Z,1003.32
2017-07-30T16:49:22.629Z,1003.33
2017-07-30T16:50:03.231Z,1003.34
2017-07-30T16:50:43.813Z,1003.38
2017-07-30T16:51:24.380Z,1003.37
2017-07-30T16:52:04.962Z,1003.4
2017-07-30T16:52:45.544Z,1003.4
2017-07-30T16:53:26.115Z,1003.43
2017-07-30T16:54:06.684Z,1003.36
2017-07-30T16:54:47.294Z,1003.35
2017-07-30T16:55:27.885Z,1003.34
2017-07-30T16:56:08.476Z,1003.37
2017-07-30T16:56:49.082Z,1003.36
2017-07-30T16:57:29.678Z,1003.35
2017-07-30T16:58:10.295Z,1003.37
2017-07-30T16:58:50.959Z,1003.37
2017-07-30T16:59:31.552Z,1003.35
2017-07-30T17:00:12.154Z,1003.36
2017-07-30T17:00:52.720Z,1003.35
2017-07-30T17:01:33.286Z,1003.33
2017-07-30T17:02:13.894Z,1003.38
2017-07-30T17:02:54.461Z,1003.38
2017-07-30T17:03:35.078Z,1003.43
2017-07-30T17:04:15.684Z,1003.43
2017-07-30T17:04:56.251Z,1003.45
2017-07-30T17:05:36.891Z,1003.42
2017-07-30T17:06:17.553Z,1003.48
2017-07-30T17:06:58.163Z,1003.52
2017-07-30T17:07:38.757Z,1003.51
2017-07-30T17:08:19.317Z,1003.52
2017-07-30T17:08:59.912Z,1003.49
2017-07-30T17:09:40.498Z,1003.48
2017-07-30T17:10:21.104Z,1003.51
2017-07-30T17:11:01.735Z,1003.5
2017-07-30T17:11:42.346Z,1003.5
2017-07-30T17:12:22.980Z,1003.43
2017-07-30T17:13:03.588Z,1003.48
2017-07-30T17:13:44.200Z,1003.45
2017-07-30T17:14:24.770Z,1003.49
2017-07-30T17:15:05.375Z,1003.48
2017-07-30T17:15:45.963Z,1003.43
2017-07-30T17:16:26.533Z,1003.48
2017-07-30T17:17:07.108Z,1003.51
2017-07-30T17:17:47.678Z,1003.47
2017-07-30T17:18:28.270Z,1003.48
2017-07-30T17:19:08.868Z,1003.48
2017-07-30T17:19:49.492Z,1003.5
2017-07-30T17:20:30.083Z,1003.48
2017-07-30T17:21:10.713Z,1003.5
2017-07-30T17:21:51.394Z,1003.55
2017-07-30T17:22:31.951Z,1003.53
2017-07-30T17:23:12.571Z,1003.55
2017-07-30T17:23:53.154Z,1003.53
2017-07-30T17:24:33.761Z,1003.52
2017-07-30T17:25:14.362Z,1003.53
2017-07-30T17:25:54.916Z,1003.55
2017-07-30T17:26:35.525Z,1003.56
2017-07-30T17:27:16.110Z,1003.56
2017-07-30T17:27:56.700Z,1003.59
2017-07-30T17:28:37.285Z,1003.67
2017-07-30T17:29:17.857Z,1003.66
2017-07-30T17:29:58.459Z,1003.68
2017-07-30T17:30:39.063Z,1003.71
2017-07-30T17:31:19.661Z,1003.71
2017-07-30T17:32:00.245Z,1003.79
2017-07-30T17:32:40.826Z,1003.79
2017-07-30T17:33:21.451Z,1003.85
2017-07-30T17:34:02.062Z,1003.82
2017-07-30T17:34:42.784Z,1003.82
2017-07-30T17:35:23.375Z,1003.81
2017-07-30T17:36:03.939Z,1003.83
2017-07-30T17:36:44.707Z,1003.83
2017-07-30T17:37:25.330Z,1003.84
2017-07-30T17:38:05.925Z,1003.87
2017-07-30T17:38:46.784Z,1003.86
2017-07-30T17:39:27.382Z,1003.89
2017-07-30T17:40:07.951Z,1003.89
2017-07-30T17:40:48.530Z,1003.87
2017-07-30T17:41:29.131Z,1003.87
2017-07-30T17:42:09.737Z,1003.89
2017-07-30T17:42:50.361Z,1003.88
2017-07-30T17:43:30.955Z,1003.89
2017-07-30T17:44:11.528Z,1003.92
2017-07-30T17:44:52.776Z,1003.95
2017-07-30T17:45:34.150Z,1003.91
2017-07-30T17:46:15.309Z,1003.93
2017-07-30T17:46:57.200Z,1003.93
2017-07-30T17:47:37.823Z,1003.93
2017-07-30T17:48:19.861Z,1003.92
2017-07-30T17:49:04.786Z,1003.93
2017-07-30T17:49:49.612Z,1003.95
2017-07-30T17:50:33.395Z,1003.96
2017-07-30T17:51:15.895Z,1003.98
2017-07-30T17:51:57.869Z,1003.97
2017-07-30T17:52:38.471Z,1004
2017-07-30T17:53:19.065Z,1003.99
2017-07-30T17:53:59.653Z,1004
2017-07-30T17:54:40.210Z,1004
2017-07-30T17:55:20.807Z,1004
2017-07-30T17:56:01.385Z,1003.98
2017-07-30T17:56:41.953Z,1003.98
2017-07-30T17:57:22.586Z,1003.96
2017-07-30T17:58:03.196Z,1003.96
2017-07-30T17:58:43.781Z,1003.94
2017-07-30T17:59:24.376Z,1003.94
2017-07-30T18:00:04.968Z,1003.92
2017-07-30T18:00:45.525Z,1003.98
2017-07-30T18:01:26.095Z,1003.94
2017-07-30T18:02:06.687Z,1003.91
2017-07-30T18:02:47.290Z,1003.92
2017-07-30T18:03:27.858Z,1003.93
2017-07-30T18:04:08.450Z,1003.98
2017-07-30T18:04:49.036Z,1003.99
2017-07-30T18:05:29.634Z,1003.97
2017-07-30T18:06:10.237Z,1004.01
2017-07-30T18:06:50.813Z,1003.98
2017-07-30T18:07:31.471Z,1004
2017-07-30T18:08:12.096Z,1004.02
2017-07-30T18:08:52.701Z,1003.99
2017-07-30T18:09:33.283Z,1004.02
2017-07-30T18:10:13.843Z,1004.01
2017-07-30T18:10:54.448Z,1003.99
2017-07-30T18:11:35.041Z,1004.01
2017-07-30T18:12:15.629Z,1003.98
2017-07-30T18:12:56.245Z,1003.99
2017-07-30T18:13:36.859Z,1003.97
2017-07-30T18:14:17.485Z,1003.95
2017-07-30T18:14:58.063Z,1003.98
2017-07-30T18:15:38.652Z,1004
2017-07-30T18:16:19.245Z,1004
2017-07-30T18:16:59.825Z,1003.96
2017-07-30T18:17:40.388Z,1003.96
2017-07-30T18:18:20.977Z,1003.92
2017-07-30T18:19:01.586Z,1003.93
2017-07-30T18:19:42.254Z,1003.9
2017-07-30T18:20:22.878Z,1003.94
2017-07-30T18:21:03.441Z,1003.94
2017-07-30T18:21:44.060Z,1003.9
2017-07-30T18:22:24.627Z,1003.91
2017-07-30T18:23:05.234Z,1003.95
2017-07-30T18:23:45.853Z,1003.92
2017-07-30T18:24:26.418Z,1003.89
2017-07-30T18:25:07.040Z,1003.91
2017-07-30T18:25:47.626Z,1003.9
2017-07-30T18:26:28.253Z,1003.9
2017-07-30T18:27:08.867Z,1003.88
2017-07-30T18:27:49.447Z,1003.92
2017-07-30T18:28:30.104Z,1003.9
2017-07-30T18:29:10.658Z,1003.91
2017-07-30T18:29:51.254Z,1003.9
2017-07-30T18:30:31.828Z,1003.94
2017-07-30T18:31:12.917Z,1003.92
2017-07-30T18:31:53.543Z,1003.92
2017-07-30T18:32:34.538Z,1003.91
2017-07-30T18:33:15.536Z,1003.84
2017-07-30T18:33:56.151Z,1003.86
2017-07-30T18:34:36.737Z,1003.82
2017-07-30T18:35:17.359Z,1003.85
2017-07-30T18:35:57.950Z,1003.83
2017-07-30T18:36:38.574Z,1003.79
2017-07-30T18:37:19.244Z,1003.8
2017-07-30T18:37:59.862Z,1003.82
2017-07-30T18:38:40.452Z,1003.81
2017-07-30T18:39:21.040Z,1003.83
2017-07-30T18:40:01.648Z,1003.82
2017-07-30T18:40:42.238Z,1003.82
2017-07-30T18:41:22.821Z,1003.84
2017-07-30T18:42:03.403Z,1003.88
2017-07-30T18:42:43.989Z,1003.86
2017-07-30T18:43:24.600Z,1003.87
2017-07-30T18:44:05.205Z,1003.9
2017-07-30T18:44:45.773Z,1003.88
2017-07-30T18:45:26.384Z,1003.92
2017-07-30T18:46:06.968Z,1003.92
2017-07-30T18:46:47.631Z,1003.94
2017-07-30T18:47:28.225Z,1003.89
2017-07-30T18:48:08.811Z,1003.95
2017-07-30T18:48:49.391Z,1003.92
2017-07-30T18:49:29.982Z,1003.95
2017-07-30T18:50:10.566Z,1003.89
2017-07-30T18:50:51.139Z,1003.96
2017-07-30T18:51:31.709Z,1003.93
2017-07-30T18:52:12.312Z,1003.96
2017-07-30T18:52:52.909Z,1003.98
2017-07-30T18:53:33.509Z,1004.02
2017-07-30T18:54:14.095Z,1003.98
2017-07-30T18:54:54.685Z,1004.02
2017-07-30T18:55:35.291Z,1004
2017-07-30T18:56:15.863Z,1004.06
2017-07-30T18:56:56.473Z,1004.06
2017-07-30T18:57:37.077Z,1004.08
2017-07-30T18:58:17.678Z,1004.07
2017-07-30T18:58:58.258Z,1004.1
2017-07-30T18:59:38.844Z,1004.1
2017-07-30T19:00:19.468Z,1004.06
2017-07-30T19:01:00.073Z,1004.1
2017-07-30T19:01:40.690Z,1004.08
2017-07-30T19:02:21.284Z,1004.12
2017-07-30T19:03:01.844Z,1004.07
2017-07-30T19:03:42.496Z,1004.09
2017-07-30T19:04:23.092Z,1004.09
2017-07-30T19:05:03.677Z,1004.09
2017-07-30T19:05:44.281Z,1004.08
2017-07-30T19:06:24.872Z,1004.09
2017-07-30T19:07:05.466Z,1004.09
2017-07-30T19:07:46.063Z,1004.14
2017-07-30T19:08:26.679Z,1004.16
2017-07-30T19:09:07.315Z,1004.15
2017-07-30T19:09:47.914Z,1004.17
2017-07-30T19:10:28.499Z,1004.18
2017-07-30T19:11:09.110Z,1004.21
2017-07-30T19:11:49.705Z,1004.2
2017-07-30T19:12:30.299Z,1004.23
2017-07-30T19:13:10.881Z,1004.21
2017-07-30T19:13:51.472Z,1004.24
2017-07-30T19:14:32.075Z,1004.25
2017-07-30T19:15:12.635Z,1004.28
2017-07-30T19:15:53.243Z,1004.33
2017-07-30T19:16:33.795Z,1004.31
2017-07-30T19:17:14.367Z,1004.31
2017-07-30T19:17:54.975Z,1004.3
2017-07-30T19:18:35.538Z,1004.28
2017-07-30T19:19:16.160Z,1004.32
2017-07-30T19:19:56.740Z,1004.35
2017-07-30T19:20:37.337Z,1004.33
2017-07-30T19:21:17.895Z,1004.36
2017-07-30T19:21:58.483Z,1004.34
2017-07-30T19:22:39.093Z,1004.37
2017-07-30T19:23:19.695Z,1004.37
2017-07-30T19:24:00.308Z,1004.4
2017-07-30T19:24:40.921Z,1004.39
2017-07-30T19:25:21.545Z,1004.42
2017-07-30T19:26:02.195Z,1004.44
2017-07-30T19:26:42.753Z,1004.44
2017-07-30T19:27:23.353Z,1004.43
2017-07-30T19:28:03.943Z,1004.48
2017-07-30T19:28:44.544Z,1004.5
2017-07-30T19:29:25.131Z,1004.49
2017-07-30T19:30:05.718Z,1004.53
2017-07-30T19:30:46.328Z,1004.57
2017-07-30T19:31:26.934Z,1004.54
2017-07-30T19:32:07.524Z,1004.55
2017-07-30T19:32:48.144Z,1004.59
2017-07-30T19:33:28.723Z,1004.58
2017-07-30T19:34:09.343Z,1004.57
2017-07-30T19:34:49.942Z,1004.61
2017-07-30T19:35:30.566Z,1004.57
2017-07-30T19:36:11.163Z,1004.53
2017-07-30T19:36:51.833Z,1004.57
2017-07-30T19:37:32.417Z,1004.57
2017-07-30T19:38:13.020Z,1004.59
2017-07-30T19:38:53.632Z,1004.59
2017-07-30T19:39:34.226Z,1004.62
2017-07-30T19:40:14.833Z,1004.65
2017-07-30T19:40:55.463Z,1004.65
2017-07-30T19:41:36.050Z,1004.63
2017-07-30T19:42:16.635Z,1004.65
2017-07-30T19:42:57.239Z,1004.69
2017-07-30T19:43:37.809Z,1004.72
2017-07-30T19:44:18.404Z,1004.76
2017-07-30T19:44:59.043Z,1004.73
2017-07-30T19:45:39.667Z,1004.76
2017-07-30T19:46:20.256Z,1004.73
2017-07-30T19:47:00.859Z,1004.71
2017-07-30T19:47:41.492Z,1004.75
2017-07-30T19:48:22.093Z,1004.74
2017-07-30T19:49:02.706Z,1004.76
2017-07-30T19:49:43.271Z,1004.76
2017-07-30T19:50:23.850Z,1004.75
2017-07-30T19:51:04.416Z,1004.76
2017-07-30T19:51:45.010Z,1004.78
2017-07-30T19:52:25.574Z,1004.78
2017-07-30T19:53:06.457Z,1004.77
2017-07-30T19:53:47.183Z,1004.83
2017-07-30T19:54:27.783Z,1004.84
2017-07-30T19:55:08.433Z,1004.79
2017-07-30T19:55:49.032Z,1004.81
2017-07-30T19:56:29.648Z,1004.83
2017-07-30T19:57:10.505Z,1004.84
2017-07-30T19:57:50.897Z,1004.9
2017-07-30T19:58:31.755Z,1004.91
2017-07-30T19:59:12.546Z,1004.94
2017-07-30T19:59:53.269Z,1004.94
2017-07-30T20:00:33.881Z,1005.01
2017-07-30T20:01:14.514Z,1005.03
2017-07-30T20:01:55.187Z,1005
2017-07-30T20:02:35.961Z,1005.02
2017-07-30T20:03:16.780Z,1005.05
2017-07-30T20:03:57.503Z,1005.08
2017-07-30T20:04:38.219Z,1005.09
2017-07-30T20:05:18.870Z,1005.05
2017-07-30T20:05:59.618Z,1005.1
2017-07-30T20:06:40.463Z,1005.12
2017-07-30T20:07:21.122Z,1005.14
2017-07-30T20:08:01.894Z,1005.16
2017-07-30T20:08:42.832Z,1005.16
2017-07-30T20:09:23.352Z,1005.2
2017-07-30T20:10:04.032Z,1005.18
2017-07-30T20:10:44.631Z,1005.2
2017-07-30T20:11:25.247Z,1005.21
2017-07-30T20:12:05.976Z,1005.2
2017-07-30T20:12:46.575Z,1005.22
2017-07-30T20:13:27.281Z,1005.27
2017-07-30T20:14:07.881Z,1005.27
2017-07-30T20:14:48.425Z,1005.26
2017-07-30T20:15:29.059Z,1005.25
2017-07-30T20:16:10.535Z,1005.26
2017-07-30T20:16:52.243Z,1005.3
2017-07-30T20:17:32.887Z,1005.31
2017-07-30T20:18:13.530Z,1005.31
2017-07-30T20:18:54.142Z,1005.31
2017-07-30T20:19:34.762Z,1005.32
2017-07-30T20:20:15.461Z,1005.33
2017-07-30T20:20:56.207Z,1005.31
2017-07-30T20:21:36.922Z,1005.36
2017-07-30T20:22:17.511Z,1005.34
2017-07-30T20:22:58.130Z,1005.34
2017-07-30T20:23:38.708Z,1005.34
2017-07-30T20:24:19.303Z,1005.3
2017-07-30T20:24:59.923Z,1005.32
2017-07-30T20:25:40.679Z,1005.33
2017-07-30T20:26:21.383Z,1005.32
2017-07-30T20:27:01.985Z,1005.29
2017-07-30T20:27:42.620Z,1005.34
2017-07-30T20:28:23.246Z,1005.33
2017-07-30T20:29:03.835Z,1005.31
2017-07-30T20:29:44.417Z,1005.4
2017-07-30T20:30:25.008Z,1005.34
2017-07-30T20:31:06.764Z,1005.33
2017-07-30T20:31:49.405Z,1005.33
2017-07-30T20:32:37.177Z,1005.36
2017-07-30T20:33:18.970Z,1005.37
2017-07-30T20:33:59.917Z,1005.39
2017-07-30T20:36:31.991Z,1005.45
2017-07-30T20:37:20.585Z,1005.47
2017-07-30T20:39:26.572Z,1005.48
2017-07-30T20:40:12.027Z,1005.48
2017-07-30T20:40:56.202Z,1005.49
2017-07-30T20:41:40.859Z,1005.48
2017-07-30T20:42:24.887Z,1005.54
2017-07-30T20:43:06.386Z,1005.49
2017-07-30T20:43:50.186Z,1005.53
2017-07-30T20:44:33.223Z,1005.52
2017-07-30T20:45:23.776Z,1005.56
2017-07-30T20:46:06.920Z,1005.57
2017-07-30T20:46:48.056Z,1005.55
2017-07-30T20:47:28.727Z,1005.57
2017-07-30T20:48:12.932Z,1005.62
2017-07-30T20:48:53.773Z,1005.58
2017-07-30T20:49:35.193Z,1005.59
2017-07-30T20:50:15.914Z,1005.62
2017-07-30T20:51:02.097Z,1005.62
2017-07-30T20:51:44.356Z,1005.62
2017-07-30T20:52:28.035Z,1005.66
2017-07-30T20:53:15.847Z,1005.67
2017-07-30T20:53:58.291Z,1005.65
2017-07-30T20:54:38.781Z,1005.71
2017-07-30T20:55:21.697Z,1005.68
2017-07-30T20:56:02.655Z,1005.71
2017-07-30T20:56:43.970Z,1005.72
2017-07-30T20:57:26.059Z,1005.71
2017-07-30T20:58:16.390Z,1005.7
2017-07-30T21:00:05.004Z,1005.71
2017-07-30T21:00:48.986Z,1005.76
2017-07-30T21:01:31.716Z,1005.79
2017-07-30T21:02:15.612Z,1005.77
2017-07-30T21:02:56.414Z,1005.74
2017-07-30T21:03:37.979Z,1005.79
2017-07-30T21:04:19.448Z,1005.81
2017-07-30T21:05:07.881Z,1005.8
2017-07-30T21:05:52.853Z,1005.8
2017-07-30T21:06:37.626Z,1005.78
2017-07-30T21:07:18.416Z,1005.82
2017-07-30T21:08:02.509Z,1005.82
2017-07-30T21:08:43.826Z,1005.82
2017-07-30T21:09:26.213Z,1005.85
2017-07-30T21:10:07.442Z,1005.84
2017-07-30T21:10:50.037Z,1005.85
2017-07-30T21:11:32.291Z,1005.83
2017-07-30T21:12:19.891Z,1005.86
2017-07-30T21:13:08.044Z,1005.86
2017-07-30T21:13:47.358Z,1005.86
2017-07-30T21:14:28.428Z,1005.83
2017-07-30T21:15:10.319Z,1005.84
2017-07-30T21:15:51.328Z,1005.88
2017-07-30T21:16:32.635Z,1005.87
2017-07-30T21:17:15.167Z,1005.91
2017-07-30T21:17:55.728Z,1005.9
2017-07-30T21:18:38.985Z,1005.91
2017-07-30T21:19:19.773Z,1005.9
2017-07-30T21:20:00.894Z,1005.94
2017-07-30T21:20:41.479Z,1005.94
2017-07-30T21:21:22.081Z,1005.95
2017-07-30T21:22:02.696Z,1005.94
2017-07-30T21:22:43.310Z,1005.95
2017-07-30T21:23:23.897Z,1006
2017-07-30T21:24:04.494Z,1005.99
2017-07-30T21:24:45.074Z,1005.98
2017-07-30T21:25:25.652Z,1006.05
2017-07-30T21:26:06.242Z,1006.05
2017-07-30T21:26:46.823Z,1006.06
2017-07-30T21:27:27.451Z,1006.11
2017-07-30T21:28:08.027Z,1006.11
2017-07-30T21:28:48.616Z,1006.14
2017-07-30T21:29:29.215Z,1006.15
2017-07-30T21:30:09.800Z,1006.13
2017-07-30T21:30:50.394Z,1006.15
2017-07-30T21:31:30.998Z,1006.15
2017-07-30T21:32:11.583Z,1006.19
2017-07-30T21:32:52.169Z,1006.2
2017-07-30T21:33:32.731Z,1006.18
2017-07-30T21:34:13.312Z,1006.2
2017-07-30T21:34:53.901Z,1006.18
2017-07-30T21:35:34.507Z,1006.23
2017-07-30T21:36:15.132Z,1006.22
2017-07-30T21:36:55.725Z,1006.24
2017-07-30T21:37:36.325Z,1006.31
2017-07-30T21:38:16.929Z,1006.25
2017-07-30T21:38:57.509Z,1006.26
2017-07-30T21:39:38.104Z,1006.26
2017-07-30T21:40:18.816Z,1006.25
2017-07-30T21:40:59.398Z,1006.28
2017-07-30T21:41:40.021Z,1006.29
2017-07-30T21:42:20.630Z,1006.25
2017-07-30T21:43:01.247Z,1006.23
2017-07-30T21:43:41.878Z,1006.21
2017-07-30T21:44:22.473Z,1006.2
2017-07-30T21:45:03.038Z,1006.22
2017-07-30T21:45:43.624Z,1006.23
2017-07-30T21:46:24.210Z,1006.23
2017-07-30T21:47:04.832Z,1006.22
2017-07-30T21:47:45.416Z,1006.25
2017-07-30T21:48:26.047Z,1006.23
2017-07-30T21:49:06.659Z,1006.25
2017-07-30T21:49:47.248Z,1006.27
2017-07-30T21:50:27.830Z,1006.23
2017-07-30T21:51:08.397Z,1006.22
2017-07-30T21:51:48.978Z,1006.22
2017-07-30T21:52:29.555Z,1006.23
2017-07-30T21:53:10.126Z,1006.25
2017-07-30T21:53:50.701Z,1006.2
2017-07-30T21:54:31.279Z,1006.18
2017-07-30T21:55:11.886Z,1006.21
2017-07-30T21:55:52.453Z,1006.2
2017-07-30T21:56:33.018Z,1006.2
2017-07-30T21:57:13.590Z,1006.25
2017-07-30T21:57:54.155Z,1006.23
2017-07-30T21:58:34.733Z,1006.23
2017-07-30T21:59:15.321Z,1006.2
2017-07-30T21:59:55.897Z,1006.19
2017-07-30T22:00:36.459Z,1006.22
2017-07-30T22:01:17.032Z,1006.21
2017-07-30T22:01:57.604Z,1006.21
2017-07-30T22:02:38.177Z,1006.23
2017-07-30T22:03:18.747Z,1006.24
2017-07-30T22:03:59.329Z,1006.25
2017-07-30T22:04:39.912Z,1006.3
2017-07-30T22:05:20.539Z,1006.3
2017-07-30T22:06:01.114Z,1006.31
2017-07-30T22:06:41.677Z,1006.31
2017-07-30T22:07:22.306Z,1006.33
2017-07-30T22:08:02.906Z,1006.37
2017-07-30T22:08:43.468Z,1006.38
2017-07-30T22:09:24.058Z,1006.38
2017-07-30T22:10:04.628Z,1006.36
2017-07-30T22:10:45.210Z,1006.4
2017-07-30T22:11:25.763Z,1006.35
2017-07-30T22:12:06.351Z,1006.38
2017-07-30T22:12:46.976Z,1006.37
2017-07-30T22:13:27.553Z,1006.34
2017-07-30T22:14:08.116Z,1006.38
2017-07-30T22:14:48.713Z,1006.33
2017-07-30T22:15:29.284Z,1006.34
2017-07-30T22:16:09.863Z,1006.32
2017-07-30T22:16:50.436Z,1006.28
2017-07-30T22:17:31.088Z,1006.37
2017-07-30T22:18:11.723Z,1006.33
2017-07-30T22:18:52.346Z,1006.34
2017-07-30T22:19:32.921Z,1006.34
2017-07-30T22:20:13.506Z,1006.3
2017-07-30T22:20:54.099Z,1006.33
2017-07-30T22:21:34.678Z,1006.3
2017-07-30T22:22:15.258Z,1006.27
2017-07-30T22:22:55.830Z,1006.29
2017-07-30T22:23:36.418Z,1006.26
2017-07-30T22:24:16.995Z,1006.28
2017-07-30T22:24:57.604Z,1006.3
2017-07-30T22:25:38.200Z,1006.33
2017-07-30T22:26:18.803Z,1006.28
2017-07-30T22:26:59.392Z,1006.35
2017-07-30T22:27:40.002Z,1006.35
2017-07-30T22:28:20.597Z,1006.36
2017-07-30T22:29:01.182Z,1006.35
2017-07-30T22:29:41.773Z,1006.38
2017-07-30T22:30:22.430Z,1006.37
2017-07-30T22:31:02.999Z,1006.38
2017-07-30T22:31:43.577Z,1006.4
2017-07-30T22:32:24.168Z,1006.4
2017-07-30T22:33:04.745Z,1006.39
2017-07-30T22:33:45.330Z,1006.36
2017-07-30T22:34:25.898Z,1006.41
2017-07-30T22:35:06.476Z,1006.4
2017-07-30T22:35:47.051Z,1006.37
2017-07-30T22:36:27.619Z,1006.39
2017-07-30T22:37:08.202Z,1006.4
2017-07-30T22:37:48.766Z,1006.38
2017-07-30T22:38:29.365Z,1006.37
2017-07-30T22:39:09.964Z,1006.39
2017-07-30T22:39:50.535Z,1006.34
2017-07-30T22:40:31.121Z,1006.35
2017-07-30T22:41:11.729Z,1006.38
2017-07-30T22:41:52.305Z,1006.4
2017-07-30T22:42:32.878Z,1006.38
2017-07-30T22:43:13.466Z,1006.42
2017-07-30T22:43:54.043Z,1006.41
2017-07-30T22:44:34.620Z,1006.38
2017-07-30T22:45:15.188Z,1006.35
2017-07-30T22:45:55.769Z,1006.36
2017-07-30T22:46:36.337Z,1006.36
2017-07-30T22:47:16.922Z,1006.35
2017-07-30T22:47:57.491Z,1006.34
2017-07-30T22:48:38.074Z,1006.33
2017-07-30T22:49:18.658Z,1006.31
2017-07-30T22:49:59.226Z,1006.35
2017-07-30T22:50:39.805Z,1006.37
2017-07-30T22:51:20.371Z,1006.38
2017-07-30T22:52:00.954Z,1006.41
2017-07-30T22:52:41.544Z,1006.41
2017-07-30T22:53:22.129Z,1006.46
2017-07-30T22:54:02.709Z,1006.47
2017-07-30T22:54:43.281Z,1006.49
2017-07-30T22:55:23.865Z,1006.5
2017-07-30T22:56:04.449Z,1006.47
2017-07-30T22:56:45.016Z,1006.51
2017-07-30T22:57:25.604Z,1006.54
2017-07-30T22:58:06.177Z,1006.55
2017-07-30T22:58:46.808Z,1006.54
2017-07-30T22:59:27.389Z,1006.54
2017-07-30T23:00:07.963Z,1006.56
2017-07-30T23:00:48.519Z,1006.58
2017-07-30T23:01:29.120Z,1006.58
2017-07-30T23:02:09.691Z,1006.55
2017-07-30T23:02:50.290Z,1006.6
2017-07-30T23:03:30.859Z,1006.61
2017-07-30T23:04:11.464Z,1006.62
2017-07-30T23:04:52.016Z,1006.55
2017-07-30T23:05:32.592Z,1006.59
2017-07-30T23:06:13.164Z,1006.59
2017-07-30T23:06:53.751Z,1006.63
2017-07-30T23:07:34.350Z,1006.63
2017-07-30T23:08:14.924Z,1006.62
2017-07-30T23:08:55.523Z,1006.63
2017-07-30T23:09:36.090Z,1006.61
2017-07-30T23:10:16.678Z,1006.58
2017-07-30T23:10:57.299Z,1006.55
2017-07-30T23:11:37.865Z,1006.64
2017-07-30T23:12:18.441Z,1006.59
2017-07-30T23:12:59.026Z,1006.63
2017-07-30T23:13:39.620Z,1006.57
2017-07-30T23:14:20.190Z,1006.57
2017-07-30T23:15:00.781Z,1006.61
2017-07-30T23:15:41.346Z,1006.59
2017-07-30T23:16:21.957Z,1006.59
2017-07-30T23:17:02.577Z,1006.57
2017-07-30T23:17:43.140Z,1006.54
2017-07-30T23:18:23.718Z,1006.51
2017-07-30T23:19:04.274Z,1006.53
2017-07-30T23:19:44.868Z,1006.54
2017-07-30T23:20:25.449Z,1006.53
2017-07-30T23:21:06.054Z,1006.55
2017-07-30T23:21:46.617Z,1006.57
2017-07-30T23:22:27.180Z,1006.55
2017-07-30T23:23:07.740Z,1006.54
2017-07-30T23:23:48.307Z,1006.53
2017-07-30T23:24:28.887Z,1006.53
2017-07-30T23:25:09.459Z,1006.49
2017-07-30T23:25:50.053Z,1006.52
2017-07-30T23:26:30.669Z,1006.52
2017-07-30T23:27:11.259Z,1006.52
2017-07-30T23:27:51.888Z,1006.53
2017-07-30T23:28:32.470Z,1006.56
2017-07-30T23:29:13.040Z,1006.57
2017-07-30T23:29:53.630Z,1006.63
2017-07-30T23:30:34.231Z,1006.63
2017-07-30T23:31:14.832Z,1006.65
2017-07-30T23:31:55.432Z,1006.69
2017-07-30T23:32:36.028Z,1006.69
2017-07-30T23:33:16.644Z,1006.67
2017-07-30T23:33:57.237Z,1006.71
2017-07-30T23:34:37.826Z,1006.7
2017-07-30T23:35:18.401Z,1006.74
2017-07-30T23:35:58.976Z,1006.71
2017-07-30T23:36:39.550Z,1006.73
2017-07-30T23:37:20.133Z,1006.74
2017-07-30T23:38:00.741Z,1006.67
2017-07-30T23:38:41.305Z,1006.66
2017-07-30T23:39:21.956Z,1006.64
2017-07-30T23:40:02.563Z,1006.62
2017-07-30T23:40:43.159Z,1006.63
2017-07-30T23:41:23.749Z,1006.62
2017-07-30T23:42:04.327Z,1006.63
2017-07-30T23:42:44.896Z,1006.6
2017-07-30T23:43:25.464Z,1006.6
2017-07-30T23:44:06.053Z,1006.62
2017-07-30T23:44:46.650Z,1006.6
2017-07-30T23:45:27.249Z,1006.63
2017-07-30T23:46:07.842Z,1006.62
2017-07-30T23:46:48.427Z,1006.64
2017-07-30T23:47:29.075Z,1006.65
2017-07-30T23:48:09.662Z,1006.65
2017-07-30T23:48:50.270Z,1006.66
2017-07-30T23:49:30.859Z,1006.64
2017-07-30T23:50:11.436Z,1006.68
2017-07-30T23:50:52.023Z,1006.67
2017-07-30T23:51:32.669Z,1006.67
2017-07-30T23:52:13.241Z,1006.63
2017-07-30T23:52:53.818Z,1006.63
2017-07-30T23:53:34.437Z,1006.65
2017-07-30T23:54:15.065Z,1006.63
2017-07-30T23:54:55.617Z,1006.61
2017-07-30T23:55:36.204Z,1006.6
2017-07-30T23:56:16.778Z,1006.62
2017-07-30T23:56:57.384Z,1006.61
2017-07-30T23:57:37.944Z,1006.65
2017-07-30T23:58:18.507Z,1006.63
2017-07-30T23:58:59.089Z,1006.66
2017-07-30T23:59:39.720Z,1006.7
